createdAt,value
2022-08-14T00:02:27.263Z,8.20
2022-08-14T00:04:55.800Z,8.82
2022-08-14T00:07:25.355Z,8.45
2022-08-14T00:10:01.830Z,8.68
2022-08-14T00:12:56.496Z,8.30
2022-08-14T00:15:30.007Z,9.02
2022-08-14T00:18:07.254Z,8.60
2022-08-14T00:20:42.916Z,7.97
2022-08-14T00:23:17.430Z,8.52
2022-08-14T00:25:53.728Z,8.40
2022-08-14T00:28:32.523Z,8.15
2022-08-14T00:31:03.185Z,8.70
2022-08-14T00:33:52.496Z,8.00
2022-08-14T00:36:39.032Z,8.50
2022-08-14T00:39:14.417Z,8.48
2022-08-14T00:41:42.882Z,7.82
2022-08-14T00:44:11.155Z,7.70
2022-08-14T00:46:41.121Z,7.75
2022-08-14T00:49:11.539Z,8.10
2022-08-14T00:51:44.700Z,8.48
2022-08-14T00:54:21.702Z,8.77
2022-08-14T00:56:55.276Z,8.38
2022-08-14T00:59:25.121Z,8.98
2022-08-14T01:01:55.666Z,8.18
2022-08-14T01:04:51.166Z,8.57
2022-08-14T01:07:19.941Z,8.60
2022-08-14T01:09:52.167Z,8.63
2022-08-14T01:12:27.007Z,8.60
2022-08-14T01:14:59.385Z,8.38
2022-08-14T01:17:50.800Z,8.75
2022-08-14T01:20:41.396Z,8.30
2022-08-14T01:23:16.519Z,7.82
2022-08-14T01:25:51.419Z,8.90
2022-08-14T01:28:34.386Z,9.15
2022-08-14T01:31:12.558Z,9.00
2022-08-14T01:33:59.734Z,9.00
2022-08-14T01:36:37.028Z,9.57
2022-08-14T01:39:12.820Z,9.32
2022-08-14T01:41:43.898Z,9.65
2022-08-14T01:44:32.992Z,8.82
2022-08-14T01:47:11.851Z,9.07
2022-08-14T01:49:46.169Z,9.40
2022-08-14T01:52:34.391Z,9.85
2022-08-14T01:55:17.961Z,9.00
2022-08-14T01:58:00.640Z,10.52
2022-08-14T02:00:36.374Z,9.77
2022-08-14T02:03:06.707Z,10.98
2022-08-14T02:05:38.128Z,9.90
2022-08-14T02:08:09.525Z,10.55
2022-08-14T02:10:47.138Z,10.50
2022-08-14T02:13:19.787Z,10.20
2022-08-14T02:15:48.518Z,10.30
2022-08-14T02:18:18.574Z,9.93
2022-08-14T02:20:51.379Z,10.38
2022-08-14T02:23:29.084Z,11.10
2022-08-14T02:26:24.426Z,9.95
2022-08-14T02:29:00.316Z,10.65
2022-08-14T02:31:42.260Z,11.25
2022-08-14T02:34:22.509Z,10.68
2022-08-14T02:37:03.639Z,9.90
2022-08-14T02:39:34.875Z,10.32
2022-08-14T02:42:13.165Z,10.60
2022-08-14T02:44:49.137Z,10.05
2022-08-14T02:47:20.920Z,10.93
2022-08-14T02:49:50.740Z,10.48
2022-08-14T02:52:55.656Z,10.48
2022-08-14T02:55:15.556Z,11.10
2022-08-14T02:58:02.975Z,11.55
2022-08-14T03:00:35.452Z,10.52
2022-08-14T03:03:08.427Z,10.73
2022-08-14T03:05:41.078Z,10.88
2022-08-14T03:08:15.995Z,11.10
2022-08-14T03:10:49.274Z,9.93
2022-08-14T03:13:21.446Z,10.88
2022-08-14T03:15:55.761Z,10.52
2022-08-14T03:18:30.604Z,9.82
2022-08-14T03:21:05.283Z,10.18
2022-08-14T03:23:38.050Z,11.38
2022-08-14T03:26:08.046Z,10.73
2022-08-14T03:28:39.371Z,12.02
2022-08-14T03:31:08.582Z,11.63
2022-08-14T03:33:42.287Z,10.23
2022-08-14T03:37:37.445Z,10.82
2022-08-14T03:39:16.050Z,11.93
2022-08-14T03:41:50.605Z,10.30
2022-08-14T03:45:28.013Z,11.05
2022-08-14T03:47:08.940Z,11.10
2022-08-14T03:49:41.886Z,10.93
2022-08-14T03:52:18.153Z,11.00
2022-08-14T03:55:00.805Z,11.25
2022-08-14T03:57:32.990Z,10.63
2022-08-14T04:00:13.801Z,12.13
2022-08-14T04:02:59.978Z,12.00
2022-08-14T04:05:28.192Z,11.43
2022-08-14T04:08:08.537Z,11.25
2022-08-14T04:10:46.442Z,10.88
2022-08-14T04:13:18.364Z,11.73
2022-08-14T04:15:55.907Z,11.45
2022-08-14T04:18:29.897Z,13.00
2022-08-14T04:20:58.743Z,12.65
2022-08-14T04:23:29.165Z,13.10
2022-08-14T04:26:02.719Z,13.13
2022-08-14T04:29:08.916Z,13.07
2022-08-14T04:31:24.802Z,12.98
2022-08-14T04:34:20.727Z,13.38
2022-08-14T04:37:10.647Z,14.18
2022-08-14T04:39:57.635Z,12.75
2022-08-14T04:42:47.331Z,12.30
2022-08-14T04:45:21.304Z,13.95
2022-08-14T04:48:10.117Z,12.85
2022-08-14T04:50:44.544Z,13.55
2022-08-14T04:53:15.327Z,12.63
2022-08-14T04:55:45.996Z,12.57
2022-08-14T04:58:21.487Z,12.27
2022-08-14T05:01:01.737Z,14.88
2022-08-14T05:03:34.340Z,12.73
2022-08-14T05:06:35.168Z,12.48
2022-08-14T05:09:00.314Z,11.57
2022-08-14T05:11:33.514Z,14.50
2022-08-14T05:14:42.095Z,12.43
2022-08-14T05:17:01.601Z,12.38
2022-08-14T05:19:32.570Z,13.98
2022-08-14T05:22:17.373Z,11.35
2022-08-14T05:24:51.224Z,11.30
2022-08-14T05:27:22.933Z,11.63
2022-08-14T05:29:56.982Z,11.65
2022-08-14T05:32:27.314Z,11.10
2022-08-14T05:34:59.003Z,10.25
2022-08-14T05:37:29.985Z,10.82
2022-08-14T05:40:00.825Z,11.13
2022-08-14T05:42:32.259Z,10.68
2022-08-14T05:45:04.436Z,10.85
2022-08-14T05:47:34.039Z,11.55
2022-08-14T05:50:18.573Z,11.43
2022-08-14T05:52:52.584Z,10.68
2022-08-14T05:55:22.878Z,10.88
2022-08-14T05:57:54.153Z,12.18
2022-08-14T06:00:29.310Z,10.98
2022-08-14T06:03:04.056Z,12.05
2022-08-14T06:05:33.991Z,11.45
2022-08-14T06:08:04.451Z,11.52
2022-08-14T06:10:36.992Z,11.35
2022-08-14T06:13:05.207Z,11.57
2022-08-14T06:15:33.482Z,10.63
2022-08-14T06:18:02.234Z,10.88
2022-08-14T06:20:31.316Z,12.20
2022-08-14T06:23:04.267Z,12.13
2022-08-14T06:25:32.875Z,10.90
2022-08-14T06:28:02.026Z,12.00
2022-08-14T06:30:46.416Z,12.63
2022-08-14T06:33:18.017Z,11.48
2022-08-14T06:35:47.633Z,11.57
2022-08-14T06:38:19.142Z,11.32
2022-08-14T06:40:48.499Z,12.15
2022-08-14T06:43:18.556Z,12.13
2022-08-14T06:45:53.942Z,11.52
2022-08-14T06:48:24.378Z,10.90
2022-08-14T06:50:53.432Z,11.25
2022-08-14T06:53:28.307Z,11.13
2022-08-14T06:56:01.876Z,11.75
2022-08-14T06:58:32.561Z,10.77
2022-08-14T07:01:26.869Z,11.63
2022-08-14T07:04:23.861Z,10.95
2022-08-14T07:06:54.742Z,11.50
2022-08-14T07:09:44.111Z,10.90
2022-08-14T07:12:54.204Z,11.25
2022-08-14T07:15:06.037Z,10.63
2022-08-14T07:17:36.417Z,11.05
2022-08-14T07:20:09.223Z,11.15
2022-08-14T07:22:49.749Z,11.02
2022-08-14T07:25:32.642Z,10.25
2022-08-14T07:28:01.835Z,9.73
2022-08-14T07:30:34.049Z,10.40
2022-08-14T07:33:03.499Z,10.25
2022-08-14T07:35:43.030Z,11.02
2022-08-14T07:38:22.160Z,10.60
2022-08-14T07:40:53.272Z,11.63
2022-08-14T07:43:22.116Z,11.20
2022-08-14T07:45:53.827Z,10.57
2022-08-14T07:48:25.235Z,10.70
2022-08-14T07:51:03.087Z,10.60
2022-08-14T07:53:40.410Z,11.20
2022-08-14T07:56:21.999Z,12.55
2022-08-14T07:59:00.451Z,12.70
2022-08-14T08:01:31.071Z,12.65
2022-08-14T08:04:01.172Z,12.68
2022-08-14T08:06:30.232Z,12.27
2022-08-14T08:09:03.290Z,12.65
2022-08-14T08:11:37.537Z,12.27
2022-08-14T08:14:10.503Z,13.35
2022-08-14T08:16:47.531Z,14.15
2022-08-14T08:19:20.144Z,13.00
2022-08-14T08:21:48.877Z,12.30
2022-08-14T08:24:20.034Z,11.98
2022-08-14T08:26:50.979Z,12.13
2022-08-14T08:29:28.708Z,12.82
2022-08-14T08:32:01.917Z,12.82
2022-08-14T08:34:46.005Z,13.07
2022-08-14T08:37:14.734Z,12.52
2022-08-14T08:40:03.229Z,13.18
2022-08-14T08:42:38.347Z,12.82
2022-08-14T08:45:12.097Z,12.50
2022-08-14T08:47:41.708Z,12.43
2022-08-14T08:50:23.100Z,13.80
2022-08-14T08:53:02.140Z,14.38
2022-08-14T08:55:33.884Z,14.10
2022-08-14T08:58:12.528Z,14.77
2022-08-14T09:00:49.923Z,15.23
2022-08-14T09:03:27.498Z,15.15
2022-08-14T09:05:58.287Z,15.70
2022-08-14T09:08:32.783Z,15.02
2022-08-14T09:11:19.035Z,15.90
2022-08-14T09:13:54.159Z,14.07
2022-08-14T09:16:25.086Z,14.10
2022-08-14T09:18:54.053Z,13.30
2022-08-14T09:21:24.970Z,11.25
2022-08-14T09:24:28.785Z,12.07
2022-08-14T09:26:49.113Z,11.38
2022-08-14T09:29:23.166Z,11.05
2022-08-14T09:31:57.650Z,10.02
2022-08-14T09:34:58.500Z,11.70
2022-08-14T09:37:45.046Z,11.25
2022-08-14T09:40:22.586Z,12.02
2022-08-14T09:43:02.062Z,11.40
2022-08-14T09:45:40.321Z,12.63
2022-08-14T09:48:30.064Z,13.48
2022-08-14T09:54:19.311Z,14.60
2022-08-14T09:56:31.677Z,16.10
2022-08-14T09:59:15.245Z,14.98
2022-08-14T10:01:52.919Z,14.98
2022-08-14T10:04:34.799Z,15.38
2022-08-14T10:07:08.543Z,15.68
2022-08-14T10:09:59.814Z,16.08
2022-08-14T10:12:50.217Z,15.90
2022-08-14T10:15:23.892Z,15.90
2022-08-14T10:18:17.815Z,17.60
2022-08-14T10:20:58.722Z,16.48
2022-08-14T10:23:28.927Z,17.20
2022-08-14T10:26:06.485Z,18.85
2022-08-14T10:29:17.538Z,20.00
2022-08-14T10:31:43.260Z,18.30
2022-08-14T10:34:33.333Z,19.27
2022-08-14T10:37:14.041Z,19.25
2022-08-14T10:40:02.062Z,19.40
2022-08-14T10:42:37.982Z,19.80
2022-08-14T10:45:21.504Z,19.65
2022-08-14T10:48:08.035Z,16.63
2022-08-14T10:50:46.591Z,16.95
2022-08-14T10:53:15.516Z,15.85
2022-08-14T10:55:45.600Z,14.30
2022-08-14T10:58:17.323Z,14.50
2022-08-14T11:00:57.867Z,14.98
2022-08-14T11:03:55.261Z,13.88
2022-08-14T11:06:20.902Z,13.68
2022-08-14T11:08:52.902Z,14.05
2022-08-14T11:11:25.399Z,13.38
2022-08-14T11:13:57.855Z,14.13
2022-08-14T11:16:28.721Z,13.43
2022-08-14T11:18:59.728Z,15.02
2022-08-14T11:21:34.061Z,14.40
2022-08-14T11:24:04.153Z,14.50
2022-08-14T11:26:53.271Z,13.57
2022-08-14T11:29:24.708Z,14.00
2022-08-14T11:31:57.071Z,13.27
2022-08-14T11:34:29.793Z,12.82
2022-08-14T11:37:18.220Z,13.00
2022-08-14T11:39:52.719Z,13.27
2022-08-14T11:42:57.377Z,13.48
2022-08-14T11:45:17.073Z,12.68
2022-08-14T11:48:12.901Z,13.00
2022-08-14T11:50:38.185Z,12.75
2022-08-14T11:53:09.958Z,12.85
2022-08-14T11:55:41.695Z,11.95
2022-08-14T11:58:11.744Z,12.05
2022-08-14T12:00:50.376Z,11.88
2022-08-14T12:03:27.039Z,12.82
2022-08-14T12:06:18.060Z,14.32
2022-08-14T12:09:00.323Z,13.10
2022-08-14T12:11:43.378Z,12.82
2022-08-14T12:14:30.298Z,13.13
2022-08-14T12:17:04.765Z,13.93
2022-08-14T12:19:33.441Z,14.23
2022-08-14T12:22:03.528Z,14.00
2022-08-14T12:24:40.096Z,14.82
2022-08-14T12:27:09.039Z,15.25
2022-08-14T12:29:37.683Z,14.88
2022-08-14T12:32:08.889Z,15.35
2022-08-14T12:34:37.547Z,15.50
2022-08-14T12:37:07.218Z,16.35
2022-08-14T12:39:40.240Z,15.80
2022-08-14T12:42:11.884Z,16.48
2022-08-14T12:45:00.125Z,16.75
2022-08-14T12:47:32.521Z,15.20
2022-08-14T12:50:01.239Z,15.05
2022-08-14T12:52:42.932Z,13.95
2022-08-14T12:55:21.957Z,15.32
2022-08-14T12:57:55.447Z,16.17
2022-08-14T13:00:25.853Z,16.20
2022-08-14T13:02:56.930Z,19.23
2022-08-14T13:05:27.781Z,15.52
2022-08-14T13:07:59.228Z,15.95
2022-08-14T13:10:51.972Z,16.65
2022-08-14T13:13:22.192Z,16.05
2022-08-14T13:15:57.216Z,18.27
2022-08-14T13:18:27.860Z,19.30
2022-08-14T13:21:01.054Z,18.67
2022-08-14T13:23:36.112Z,19.27
2022-08-14T13:26:08.195Z,19.67
2022-08-14T13:29:01.452Z,19.00
2022-08-14T13:31:34.113Z,18.38
2022-08-14T13:34:04.787Z,17.88
2022-08-14T13:36:51.654Z,19.27
2022-08-14T13:39:24.562Z,20.77
2022-08-14T13:41:57.728Z,20.92
2022-08-14T13:44:28.920Z,20.40
2022-08-14T13:46:58.805Z,18.77
2022-08-14T13:49:29.097Z,18.98
2022-08-14T13:52:00.582Z,17.52
2022-08-14T13:54:32.903Z,18.83
2022-08-14T13:57:04.038Z,19.80
2022-08-14T13:59:38.740Z,16.92
2022-08-14T14:02:09.616Z,16.73
2022-08-14T14:04:42.918Z,16.83
2022-08-14T14:07:23.571Z,17.20
2022-08-14T14:09:56.548Z,18.27
2022-08-14T14:12:37.349Z,16.67
2022-08-14T14:15:11.242Z,17.02
2022-08-14T14:17:40.745Z,18.52
2022-08-14T14:20:34.940Z,16.23
2022-08-14T14:23:12.187Z,15.30
2022-08-14T14:25:51.146Z,13.82
2022-08-14T14:28:31.289Z,15.73
2022-08-14T14:31:06.947Z,17.48
2022-08-14T14:33:52.375Z,18.33
2022-08-14T14:36:27.907Z,16.88
2022-08-14T14:38:58.657Z,17.73
2022-08-14T14:41:38.165Z,17.75
2022-08-14T14:44:15.992Z,16.52
2022-08-14T14:46:51.027Z,18.65
2022-08-14T14:49:31.972Z,20.38
2022-08-14T14:52:23.188Z,17.50
2022-08-14T14:54:54.865Z,16.10
2022-08-14T14:57:26.638Z,16.13
2022-08-14T15:00:12.775Z,14.63
2022-08-14T15:02:44.119Z,16.17
2022-08-14T15:05:16.147Z,17.00
2022-08-14T15:07:45.450Z,16.45
2022-08-14T15:10:28.075Z,16.55
2022-08-14T15:13:03.988Z,15.68
2022-08-14T15:15:37.418Z,15.82
2022-08-14T15:18:14.727Z,13.20
2022-08-14T15:20:57.733Z,14.13
2022-08-14T15:23:43.851Z,15.13
2022-08-14T15:26:31.091Z,12.13
2022-08-14T15:29:02.764Z,14.35
2022-08-14T15:31:36.621Z,13.05
2022-08-14T15:34:44.604Z,12.93
2022-08-14T15:37:12.673Z,12.20
2022-08-14T15:39:44.271Z,13.98
2022-08-14T15:42:15.566Z,14.07
2022-08-14T15:44:58.234Z,12.10
2022-08-14T15:47:33.111Z,11.73
2022-08-14T15:50:04.911Z,12.57
2022-08-14T15:52:37.383Z,14.90
2022-08-14T15:55:08.869Z,14.35
2022-08-14T15:57:37.810Z,13.30
2022-08-14T16:00:44.144Z,14.00
2022-08-14T16:03:18.132Z,13.77
2022-08-14T16:05:56.635Z,14.93
2022-08-14T16:08:28.927Z,14.80
2022-08-14T16:10:58.948Z,14.85
2022-08-14T16:13:42.163Z,116.72
2022-08-14T16:16:35.017Z,124.28
2022-08-14T16:19:10.155Z,82.13
2022-08-14T16:22:02.213Z,550.72
2022-08-14T16:24:59.828Z,290.20
2022-08-14T16:27:39.343Z,299.45
2022-08-14T16:30:24.415Z,345.20
2022-08-14T16:33:05.303Z,219.27
2022-08-14T16:35:41.906Z,352.50
2022-08-14T16:38:44.819Z,36.33
2022-08-14T16:41:22.274Z,29.35
2022-08-14T16:43:59.393Z,24.15
2022-08-14T16:46:28.954Z,28.70
2022-08-14T16:48:59.584Z,17.40
2022-08-14T16:51:33.907Z,12.80
2022-08-14T16:54:34.531Z,14.15
2022-08-14T16:57:12.901Z,27.35
2022-08-14T16:59:52.572Z,17.90
2022-08-14T17:02:35.589Z,21.52
2022-08-14T17:05:22.541Z,20.33
2022-08-14T17:08:31.554Z,14.63
2022-08-14T17:11:04.879Z,15.93
2022-08-14T17:13:59.738Z,15.30
2022-08-14T17:16:37.568Z,14.98
2022-08-14T17:19:13.946Z,14.10
2022-08-14T17:21:47.321Z,11.20
2022-08-14T17:24:51.656Z,11.77
2022-08-14T17:27:10.404Z,11.43
2022-08-14T17:29:44.683Z,11.77
2022-08-14T17:32:29.356Z,11.95
2022-08-14T17:35:16.365Z,14.20
2022-08-14T17:37:55.666Z,13.38
2022-08-14T17:40:38.393Z,13.90
2022-08-14T17:43:08.679Z,13.63
2022-08-14T17:45:47.184Z,14.35
2022-08-14T17:49:10.043Z,14.68
2022-08-14T17:51:24.022Z,13.88
2022-08-14T17:54:03.003Z,13.43
2022-08-14T17:56:38.802Z,14.38
2022-08-14T17:59:07.493Z,13.43
2022-08-14T18:01:39.057Z,12.70
2022-08-14T18:04:24.880Z,13.75
2022-08-14T18:07:08.861Z,13.65
2022-08-14T18:09:57.596Z,14.23
2022-08-14T18:12:36.503Z,14.65
2022-08-14T18:15:14.585Z,14.63
2022-08-14T18:17:50.673Z,15.05
2022-08-14T18:21:24.129Z,15.63
2022-08-14T18:23:13.813Z,12.73
2022-08-14T18:25:48.526Z,16.38
2022-08-14T18:28:32.181Z,17.17
2022-08-14T18:31:42.204Z,14.95
2022-08-14T18:34:31.563Z,17.42
2022-08-14T18:37:17.219Z,15.95
2022-08-14T18:40:01.798Z,16.42
2022-08-14T18:42:46.439Z,15.90
2022-08-14T18:45:26.370Z,15.60
2022-08-14T18:48:28.750Z,16.90
2022-08-14T18:51:15.146Z,15.93
2022-08-14T18:53:59.383Z,15.15
2022-08-14T18:57:02.783Z,14.00
2022-08-14T18:59:35.696Z,14.52
2022-08-14T19:02:42.545Z,11.65
2022-08-14T19:05:14.450Z,11.52
2022-08-14T19:07:43.676Z,12.48
2022-08-14T19:10:31.796Z,12.88
2022-08-14T19:13:12.224Z,13.15
2022-08-14T19:15:43.982Z,11.48
2022-08-14T19:18:38.339Z,9.88
2022-08-14T19:21:23.985Z,9.95
2022-08-14T19:24:29.546Z,10.27
2022-08-14T19:27:19.673Z,10.57
2022-08-14T19:29:53.169Z,11.82
2022-08-14T19:32:40.952Z,13.20
2022-08-14T19:35:55.243Z,11.55
2022-08-14T19:38:49.492Z,10.25
2022-08-14T19:41:22.075Z,10.73
2022-08-14T19:43:56.945Z,11.73
2022-08-14T19:46:38.414Z,11.70
2022-08-14T19:49:22.961Z,10.10
2022-08-14T19:51:51.734Z,10.55
2022-08-14T19:54:31.479Z,10.00
2022-08-14T19:57:03.806Z,8.90
2022-08-14T19:59:36.716Z,8.07
2022-08-14T20:02:29.984Z,8.02
2022-08-14T20:05:00.525Z,8.30
2022-08-14T20:07:58.911Z,7.43
2022-08-14T20:11:04.010Z,8.65
2022-08-14T20:13:32.112Z,7.45
2022-08-14T20:16:12.375Z,7.63
2022-08-14T20:18:51.967Z,8.10
2022-08-14T20:21:21.713Z,7.85
2022-08-14T20:23:50.215Z,9.25
2022-08-14T20:26:31.782Z,8.63
2022-08-14T20:29:07.059Z,8.23
2022-08-14T20:31:38.124Z,8.73
2022-08-14T20:34:19.115Z,9.27
2022-08-14T20:37:04.714Z,9.38
2022-08-14T20:39:45.003Z,9.38
2022-08-14T20:42:34.604Z,9.98
2022-08-14T20:45:23.574Z,9.43
2022-08-14T20:47:58.561Z,9.98
2022-08-14T20:50:31.481Z,10.70
2022-08-14T20:53:06.010Z,10.70
2022-08-14T20:55:41.440Z,11.63
2022-08-14T20:58:43.459Z,10.85
2022-08-14T21:01:33.790Z,12.32
2022-08-14T21:04:12.074Z,12.18
2022-08-14T21:07:23.469Z,11.88
2022-08-14T21:10:03.374Z,12.93
2022-08-14T21:12:33.387Z,12.20
2022-08-14T21:15:03.897Z,13.20
2022-08-14T21:17:41.641Z,12.93
2022-08-14T21:20:25.234Z,13.00
2022-08-14T21:23:00.447Z,12.68
2022-08-14T21:25:31.834Z,10.90
2022-08-14T21:28:04.054Z,12.70
2022-08-14T21:30:51.866Z,11.05
2022-08-14T21:33:23.104Z,12.20
2022-08-14T21:35:55.491Z,12.68
2022-08-14T21:38:31.341Z,12.73
2022-08-14T21:41:41.323Z,12.30
2022-08-14T21:44:17.385Z,11.18
2022-08-14T21:46:50.418Z,11.45
2022-08-14T21:49:23.475Z,11.55
2022-08-14T21:51:59.964Z,12.10
2022-08-14T21:54:49.530Z,11.25
2022-08-14T21:57:55.850Z,11.95
2022-08-14T22:00:35.175Z,11.93
2022-08-14T22:03:02.806Z,11.40
2022-08-14T22:05:32.431Z,12.02
2022-08-14T22:08:02.491Z,12.48
2022-08-14T22:10:32.609Z,10.95
2022-08-14T22:13:01.799Z,11.35
2022-08-14T22:15:31.476Z,10.90
2022-08-14T22:18:02.046Z,11.32
2022-08-14T22:20:33.327Z,11.15
2022-08-14T22:23:04.513Z,11.75
2022-08-14T22:25:34.529Z,11.27
2022-08-14T22:28:14.128Z,10.13
2022-08-14T22:30:44.149Z,10.82
2022-08-14T22:33:13.408Z,10.32
2022-08-14T22:35:43.990Z,10.75
2022-08-14T22:38:35.554Z,11.00
2022-08-14T22:41:27.694Z,10.45
2022-08-14T22:43:52.264Z,10.02
2022-08-14T22:46:22.145Z,11.13
2022-08-14T22:48:51.760Z,10.60
2022-08-14T22:51:24.254Z,10.60
2022-08-14T22:53:55.071Z,10.30
2022-08-14T22:56:30.210Z,10.98
2022-08-14T22:59:00.419Z,11.25
2022-08-14T23:01:56.953Z,10.63
2022-08-14T23:04:35.649Z,11.00
2022-08-14T23:07:22.175Z,11.55
2022-08-14T23:09:55.950Z,10.23
2022-08-14T23:12:29.557Z,10.90
2022-08-14T23:14:59.257Z,10.48
2022-08-14T23:17:38.801Z,10.45
2022-08-14T23:20:18.494Z,11.38
2022-08-14T23:22:52.318Z,11.38
2022-08-14T23:25:56.649Z,11.02
2022-08-14T23:28:34.674Z,11.73
2022-08-14T23:31:08.345Z,12.27
2022-08-14T23:33:45.831Z,11.35
2022-08-14T23:36:28.189Z,11.73
2022-08-14T23:39:10.127Z,11.70
2022-08-14T23:41:46.565Z,12.07
2022-08-14T23:44:22.596Z,12.05
2022-08-14T23:46:56.989Z,12.63
2022-08-14T23:49:56.667Z,12.75
2022-08-14T23:52:50.734Z,13.30
2022-08-14T23:55:11.371Z,14.32
2022-08-14T23:57:43.803Z,14.88
